CheckWX is a tool to help pilots better visualize weather data.  It is not intended as a substitute for an official pre-flight weather briefing.

14:50:27 UTC

KMCI TAF
Kansas City International Airport
Kansas City, Missouri, USA
KMCI 231123Z 2312/2412 12012KT P6SM VCSH OVC150 FM231600 13013G23KT 6SM -SHRA BR OVC040 FM232000 13015G25KT 6SM -TSRA BR OVC025CB FM240600 15012KT P6SM VCSH OVC018

Mar-23@
12:00 UTC

Mar-23 @ 12:00 UTC

Mar-23@
16:00 UTC

Mar-23 @ 16:00 UTC

KMCI 231123Z 2312/2412 12012KT P6SM VCSH OVC150
Wind
  • 120° at 12 KTS
Cloud Levels
  • Overcast at 15,000' AGL

Mar-23@
16:00 UTC

Mar-23 @ 16:00 UTC

Mar-23@
20:00 UTC

Mar-23 @ 20:00 UTC

FM231600 13013G23KT 6SM -SHRA BR OVC040

From

From Standard forecast or significant change

Wind
  • 130° at 13 KTS
  • {Gusting to 23 KTS
Conditions
Light Rain, Mist
Cloud Levels
  • Overcast at 4,000' AGL

Mar-23@
20:00 UTC

Mar-23 @ 20:00 UTC

Mar-24@
06:00 UTC

Mar-24 @ 06:00 UTC

FM232000 13015G25KT 6SM -TSRA BR OVC025CB

From

From Standard forecast or significant change

Wind
  • 130° at 15 KTS
  • {Gusting to 25 KTS
Conditions
Light Thunderstorm, Light Rain, Mist
Cloud Levels
  • Overcast at 2,500' AGL

Mar-24@
06:00 UTC

Mar-24 @ 06:00 UTC

Mar-24@
12:00 UTC

Mar-24 @ 12:00 UTC

FM240600 15012KT P6SM VCSH OVC018

From

From Standard forecast or significant change

Wind
  • 150° at 12 KTS
Cloud Levels
  • Overcast at 1,800' AGL